sensor_id;sensor_type;location;lat;lon;timestamp;temperature;humidity
69031;DHT22;56083;48.774;8.942;2022-09-09T00:01:13;13.70;99.90
69031;DHT22;56083;48.774;8.942;2022-09-09T00:03:43;13.70;99.90
69031;DHT22;56083;48.774;8.942;2022-09-09T00:06:27;13.70;99.90
69031;DHT22;56083;48.774;8.942;2022-09-09T00:09:13;13.70;99.90
69031;DHT22;56083;48.774;8.942;2022-09-09T00:12:02;13.70;99.90
69031;DHT22;56083;48.774;8.942;2022-09-09T00:17:18;13.70;99.90
69031;DHT22;56083;48.774;8.942;2022-09-09T00:19:58;13.80;99.90
69031;DHT22;56083;48.774;8.942;2022-09-09T00:22:28;13.80;99.90
69031;DHT22;56083;48.774;8.942;2022-09-09T00:25:05;13.80;99.90
69031;DHT22;56083;48.774;8.942;2022-09-09T00:27:45;13.90;99.90
69031;DHT22;56083;48.774;8.942;2022-09-09T00:30:22;14.00;99.90
69031;DHT22;56083;48.774;8.942;2022-09-09T00:32:50;14.00;99.90
69031;DHT22;56083;48.774;8.942;2022-09-09T00:35:35;14.10;99.90
69031;DHT22;56083;48.774;8.942;2022-09-09T00:43:35;14.20;99.90
69031;DHT22;56083;48.774;8.942;2022-09-09T00:55:00;14.40;99.90
69031;DHT22;56083;48.774;8.942;2022-09-09T01:02:33;14.50;99.90
69031;DHT22;56083;48.774;8.942;2022-09-09T01:05:28;14.50;99.90
69031;DHT22;56083;48.774;8.942;2022-09-09T01:07:58;14.50;99.90
69031;DHT22;56083;48.774;8.942;2022-09-09T01:13:00;14.50;99.90
69031;DHT22;56083;48.774;8.942;2022-09-09T01:15:30;14.50;99.90
69031;DHT22;56083;48.774;8.942;2022-09-09T01:20:49;14.40;99.90
69031;DHT22;56083;48.774;8.942;2022-09-09T01:28:54;14.30;99.90
69031;DHT22;56083;48.774;8.942;2022-09-09T01:31:27;14.30;99.90
69031;DHT22;56083;48.774;8.942;2022-09-09T01:33:54;14.20;99.90
69031;DHT22;56083;48.774;8.942;2022-09-09T01:36:34;14.20;99.90
69031;DHT22;56083;48.774;8.942;2022-09-09T01:39:03;14.10;99.90
69031;DHT22;56083;48.774;8.942;2022-09-09T01:41:29;14.10;99.90
69031;DHT22;56083;48.774;8.942;2022-09-09T01:43:55;14.00;99.90
69031;DHT22;56083;48.774;8.942;2022-09-09T01:46:22;14.10;99.90
69031;DHT22;56083;48.774;8.942;2022-09-09T01:48:52;14.10;99.90
69031;DHT22;56083;48.774;8.942;2022-09-09T01:51:18;14.00;99.90
69031;DHT22;56083;48.774;8.942;2022-09-09T01:53:45;14.00;99.90
69031;DHT22;56083;48.774;8.942;2022-09-09T01:56:18;14.20;99.90
69031;DHT22;56083;48.774;8.942;2022-09-09T01:59:03;14.40;99.90
69031;DHT22;56083;48.774;8.942;2022-09-09T02:04:35;14.90;99.90
69031;DHT22;56083;48.774;8.942;2022-09-09T02:07:01;15.00;99.90
69031;DHT22;56083;48.774;8.942;2022-09-09T02:09:29;15.00;99.90
69031;DHT22;56083;48.774;8.942;2022-09-09T02:12:05;15.10;99.90
69031;DHT22;56083;48.774;8.942;2022-09-09T02:14:38;15.00;99.90
69031;DHT22;56083;48.774;8.942;2022-09-09T02:17:10;15.00;99.90
69031;DHT22;56083;48.774;8.942;2022-09-09T02:19:44;14.90;99.90
69031;DHT22;56083;48.774;8.942;2022-09-09T02:22:11;14.80;99.90
69031;DHT22;56083;48.774;8.942;2022-09-09T02:24:39;14.80;99.90
69031;DHT22;56083;48.774;8.942;2022-09-09T02:27:08;14.80;99.90
69031;DHT22;56083;48.774;8.942;2022-09-09T02:29:40;14.70;99.90
69031;DHT22;56083;48.774;8.942;2022-09-09T02:32:17;14.50;99.90
69031;DHT22;56083;48.774;8.942;2022-09-09T02:35:05;14.50;99.90
69031;DHT22;56083;48.774;8.942;2022-09-09T02:37:36;14.40;99.90
69031;DHT22;56083;48.774;8.942;2022-09-09T02:40:04;14.40;99.90
69031;DHT22;56083;48.774;8.942;2022-09-09T02:42:30;14.30;99.90
69031;DHT22;56083;48.774;8.942;2022-09-09T02:44:56;14.30;99.90
69031;DHT22;56083;48.774;8.942;2022-09-09T02:47:28;14.40;99.90
69031;DHT22;56083;48.774;8.942;2022-09-09T02:50:32;14.50;99.90
69031;DHT22;56083;48.774;8.942;2022-09-09T02:55:45;14.40;99.90
69031;DHT22;56083;48.774;8.942;2022-09-09T02:58:15;14.20;99.90
69031;DHT22;56083;48.774;8.942;2022-09-09T03:00:48;14.00;99.90
69031;DHT22;56083;48.774;8.942;2022-09-09T03:03:14;13.80;99.90
69031;DHT22;56083;48.774;8.942;2022-09-09T03:05:42;13.60;99.90
69031;DHT22;56083;48.774;8.942;2022-09-09T03:08:08;13.40;99.90
69031;DHT22;56083;48.774;8.942;2022-09-09T03:10:33;13.40;99.90
69031;DHT22;56083;48.774;8.942;2022-09-09T03:13:00;13.30;99.90
69031;DHT22;56083;48.774;8.942;2022-09-09T03:15:26;13.20;99.90
69031;DHT22;56083;48.774;8.942;2022-09-09T03:17:57;13.30;99.90
69031;DHT22;56083;48.774;8.942;2022-09-09T03:20:27;13.40;99.90
69031;DHT22;56083;48.774;8.942;2022-09-09T03:22:53;13.60;99.90
69031;DHT22;56083;48.774;8.942;2022-09-09T03:25:20;13.70;99.90
69031;DHT22;56083;48.774;8.942;2022-09-09T03:27:46;13.70;99.90
69031;DHT22;56083;48.774;8.942;2022-09-09T03:30:11;13.70;99.90
69031;DHT22;56083;48.774;8.942;2022-09-09T03:32:37;13.60;99.90
69031;DHT22;56083;48.774;8.942;2022-09-09T03:35:03;13.50;99.90
69031;DHT22;56083;48.774;8.942;2022-09-09T03:37:29;13.40;99.90
69031;DHT22;56083;48.774;8.942;2022-09-09T03:39:55;13.30;99.90
69031;DHT22;56083;48.774;8.942;2022-09-09T03:42:20;13.20;99.90
69031;DHT22;56083;48.774;8.942;2022-09-09T03:44:48;13.10;99.90
69031;DHT22;56083;48.774;8.942;2022-09-09T03:47:16;13.10;99.90
69031;DHT22;56083;48.774;8.942;2022-09-09T03:49:42;13.00;99.90
69031;DHT22;56083;48.774;8.942;2022-09-09T03:52:09;13.10;99.90
69031;DHT22;56083;48.774;8.942;2022-09-09T03:54:34;13.10;99.90
69031;DHT22;56083;48.774;8.942;2022-09-09T03:57:01;13.20;99.90
69031;DHT22;56083;48.774;8.942;2022-09-09T03:59:27;13.50;99.90
69031;DHT22;56083;48.774;8.942;2022-09-09T04:01:53;13.80;99.90
69031;DHT22;56083;48.774;8.942;2022-09-09T04:04:20;14.00;99.90
69031;DHT22;56083;48.774;8.942;2022-09-09T04:06:46;14.20;99.90
69031;DHT22;56083;48.774;8.942;2022-09-09T04:09:14;14.40;99.90
69031;DHT22;56083;48.774;8.942;2022-09-09T04:11:39;14.50;99.90
69031;DHT22;56083;48.774;8.942;2022-09-09T04:14:05;14.40;99.90
69031;DHT22;56083;48.774;8.942;2022-09-09T04:16:32;14.40;99.90
69031;DHT22;56083;48.774;8.942;2022-09-09T04:18:58;14.40;99.90
69031;DHT22;56083;48.774;8.942;2022-09-09T04:21:25;14.40;99.90
69031;DHT22;56083;48.774;8.942;2022-09-09T04:23:51;14.30;99.90
69031;DHT22;56083;48.774;8.942;2022-09-09T04:26:17;14.40;99.90
69031;DHT22;56083;48.774;8.942;2022-09-09T04:28:42;14.30;99.90
69031;DHT22;56083;48.774;8.942;2022-09-09T04:31:18;14.30;99.90
69031;DHT22;56083;48.774;8.942;2022-09-09T04:33:45;14.30;99.90
69031;DHT22;56083;48.774;8.942;2022-09-09T04:36:12;14.20;99.90
69031;DHT22;56083;48.774;8.942;2022-09-09T04:38:38;14.20;99.90
69031;DHT22;56083;48.774;8.942;2022-09-09T04:41:05;14.10;99.90
69031;DHT22;56083;48.774;8.942;2022-09-09T04:43:31;14.10;99.90
69031;DHT22;56083;48.774;8.942;2022-09-09T04:45:57;14.00;99.90
69031;DHT22;56083;48.774;8.942;2022-09-09T04:48:24;14.00;99.90
69031;DHT22;56083;48.774;8.942;2022-09-09T04:51:12;13.90;99.90
69031;DHT22;56083;48.774;8.942;2022-09-09T04:53:39;14.00;99.90
69031;DHT22;56083;48.774;8.942;2022-09-09T04:56:10;14.00;99.90
69031;DHT22;56083;48.774;8.942;2022-09-09T04:58:37;14.00;99.90
69031;DHT22;56083;48.774;8.942;2022-09-09T05:01:04;14.10;99.90
69031;DHT22;56083;48.774;8.942;2022-09-09T05:03:30;14.20;99.90
69031;DHT22;56083;48.774;8.942;2022-09-09T05:06:03;14.30;99.90
69031;DHT22;56083;48.774;8.942;2022-09-09T05:08:29;14.40;99.90
69031;DHT22;56083;48.774;8.942;2022-09-09T05:10:55;14.40;99.90
69031;DHT22;56083;48.774;8.942;2022-09-09T05:13:20;14.50;99.90
69031;DHT22;56083;48.774;8.942;2022-09-09T05:15:54;14.50;99.90
69031;DHT22;56083;48.774;8.942;2022-09-09T05:18:20;14.60;99.90
69031;DHT22;56083;48.774;8.942;2022-09-09T05:20:47;14.50;99.90
69031;DHT22;56083;48.774;8.942;2022-09-09T05:23:12;14.60;99.90
69031;DHT22;56083;48.774;8.942;2022-09-09T05:25:39;14.70;99.90
69031;DHT22;56083;48.774;8.942;2022-09-09T05:28:05;14.70;99.90
69031;DHT22;56083;48.774;8.942;2022-09-09T05:30:33;14.70;99.90
69031;DHT22;56083;48.774;8.942;2022-09-09T05:32:59;14.80;99.90
69031;DHT22;56083;48.774;8.942;2022-09-09T05:35:25;14.80;99.90
69031;DHT22;56083;48.774;8.942;2022-09-09T05:37:51;14.80;99.90
69031;DHT22;56083;48.774;8.942;2022-09-09T05:40:16;14.80;99.90
69031;DHT22;56083;48.774;8.942;2022-09-09T05:42:42;14.80;99.90
69031;DHT22;56083;48.774;8.942;2022-09-09T05:45:08;14.90;99.90
69031;DHT22;56083;48.774;8.942;2022-09-09T05:47:35;14.90;99.90
69031;DHT22;56083;48.774;8.942;2022-09-09T05:50:01;14.90;99.90
69031;DHT22;56083;48.774;8.942;2022-09-09T05:52:26;15.00;99.90
69031;DHT22;56083;48.774;8.942;2022-09-09T05:54:52;15.10;99.90
69031;DHT22;56083;48.774;8.942;2022-09-09T05:57:20;15.20;99.90
69031;DHT22;56083;48.774;8.942;2022-09-09T05:59:46;15.30;99.90
69031;DHT22;56083;48.774;8.942;2022-09-09T06:02:11;15.40;99.90
69031;DHT22;56083;48.774;8.942;2022-09-09T06:04:38;15.50;99.90
69031;DHT22;56083;48.774;8.942;2022-09-09T06:07:05;15.50;99.90
69031;DHT22;56083;48.774;8.942;2022-09-09T06:09:31;15.60;99.90
69031;DHT22;56083;48.774;8.942;2022-09-09T06:11:56;15.70;99.90
69031;DHT22;56083;48.774;8.942;2022-09-09T06:14:23;15.80;99.90
69031;DHT22;56083;48.774;8.942;2022-09-09T06:16:51;15.80;99.90
69031;DHT22;56083;48.774;8.942;2022-09-09T06:19:16;15.80;99.90
69031;DHT22;56083;48.774;8.942;2022-09-09T06:21:42;15.80;99.90
69031;DHT22;56083;48.774;8.942;2022-09-09T06:24:09;15.70;99.90
69031;DHT22;56083;48.774;8.942;2022-09-09T06:26:37;15.70;99.90
69031;DHT22;56083;48.774;8.942;2022-09-09T06:29:07;15.80;99.90
69031;DHT22;56083;48.774;8.942;2022-09-09T06:31:34;15.80;99.90
69031;DHT22;56083;48.774;8.942;2022-09-09T06:34:04;15.80;99.90
69031;DHT22;56083;48.774;8.942;2022-09-09T06:36:32;15.80;99.90
69031;DHT22;56083;48.774;8.942;2022-09-09T06:38:59;15.80;99.90
69031;DHT22;56083;48.774;8.942;2022-09-09T06:41:27;15.80;99.90
69031;DHT22;56083;48.774;8.942;2022-09-09T06:43:53;15.90;99.90
69031;DHT22;56083;48.774;8.942;2022-09-09T06:46:23;16.00;99.90
69031;DHT22;56083;48.774;8.942;2022-09-09T06:48:49;16.00;99.90
69031;DHT22;56083;48.774;8.942;2022-09-09T06:51:19;16.10;99.90
69031;DHT22;56083;48.774;8.942;2022-09-09T06:53:46;16.20;99.90
69031;DHT22;56083;48.774;8.942;2022-09-09T06:56:31;16.30;99.90
69031;DHT22;56083;48.774;8.942;2022-09-09T06:59:01;16.40;99.90
69031;DHT22;56083;48.774;8.942;2022-09-09T07:01:29;16.40;99.90
69031;DHT22;56083;48.774;8.942;2022-09-09T07:03:57;16.40;99.90
69031;DHT22;56083;48.774;8.942;2022-09-09T07:06:27;16.60;99.90
69031;DHT22;56083;48.774;8.942;2022-09-09T07:08:54;17.10;99.90
69031;DHT22;56083;48.774;8.942;2022-09-09T07:11:22;17.80;99.90
69031;DHT22;56083;48.774;8.942;2022-09-09T07:13:48;18.00;99.90
69031;DHT22;56083;48.774;8.942;2022-09-09T07:16:18;17.90;99.90
69031;DHT22;56083;48.774;8.942;2022-09-09T07:18:44;17.80;99.90
69031;DHT22;56083;48.774;8.942;2022-09-09T07:21:11;17.70;99.90
69031;DHT22;56083;48.774;8.942;2022-09-09T07:23:38;17.80;99.90
69031;DHT22;56083;48.774;8.942;2022-09-09T07:26:18;17.70;99.90
69031;DHT22;56083;48.774;8.942;2022-09-09T07:28:47;17.80;99.90
69031;DHT22;56083;48.774;8.942;2022-09-09T07:31:16;17.90;99.90
69031;DHT22;56083;48.774;8.942;2022-09-09T07:33:43;17.90;99.90
69031;DHT22;56083;48.774;8.942;2022-09-09T07:36:24;18.00;99.90
69031;DHT22;56083;48.774;8.942;2022-09-09T07:38:56;18.20;99.90
69031;DHT22;56083;48.774;8.942;2022-09-09T07:41:27;18.90;99.90
69031;DHT22;56083;48.774;8.942;2022-09-09T07:43:54;20.30;99.90
69031;DHT22;56083;48.774;8.942;2022-09-09T07:46:21;20.90;99.90
69031;DHT22;56083;48.774;8.942;2022-09-09T07:48:48;21.10;99.90
69031;DHT22;56083;48.774;8.942;2022-09-09T07:51:20;21.40;99.90
69031;DHT22;56083;48.774;8.942;2022-09-09T07:53:48;21.50;99.90
69031;DHT22;56083;48.774;8.942;2022-09-09T07:56:16;21.50;99.90
69031;DHT22;56083;48.774;8.942;2022-09-09T07:58:47;20.90;99.90
69031;DHT22;56083;48.774;8.942;2022-09-09T08:01:19;21.20;99.90
69031;DHT22;56083;48.774;8.942;2022-09-09T08:03:46;21.90;99.90
69031;DHT22;56083;48.774;8.942;2022-09-09T08:06:13;22.30;99.90
69031;DHT22;56083;48.774;8.942;2022-09-09T08:08:39;22.60;99.90
69031;DHT22;56083;48.774;8.942;2022-09-09T08:11:14;22.70;99.90
69031;DHT22;56083;48.774;8.942;2022-09-09T08:13:41;22.90;99.90
69031;DHT22;56083;48.774;8.942;2022-09-09T08:16:19;23.20;99.90
69031;DHT22;56083;48.774;8.942;2022-09-09T08:18:49;23.10;99.90
69031;DHT22;56083;48.774;8.942;2022-09-09T08:21:17;22.80;99.90
69031;DHT22;56083;48.774;8.942;2022-09-09T08:23:45;23.20;99.90
69031;DHT22;56083;48.774;8.942;2022-09-09T08:26:15;22.80;99.90
69031;DHT22;56083;48.774;8.942;2022-09-09T08:28:42;22.70;99.90
69031;DHT22;56083;48.774;8.942;2022-09-09T08:31:17;23.30;99.90
69031;DHT22;56083;48.774;8.942;2022-09-09T08:33:44;23.40;99.90
69031;DHT22;56083;48.774;8.942;2022-09-09T08:36:13;23.00;99.90
69031;DHT22;56083;48.774;8.942;2022-09-09T08:38:41;23.40;99.90
69031;DHT22;56083;48.774;8.942;2022-09-09T08:43:52;23.90;99.90
69031;DHT22;56083;48.774;8.942;2022-09-09T08:49:05;24.90;99.90
69031;DHT22;56083;48.774;8.942;2022-09-09T08:51:33;25.60;99.90
69031;DHT22;56083;48.774;8.942;2022-09-09T08:54:02;24.80;99.90
69031;DHT22;56083;48.774;8.942;2022-09-09T08:56:31;23.90;99.90
69031;DHT22;56083;48.774;8.942;2022-09-09T08:58:59;22.60;99.90
69031;DHT22;56083;48.774;8.942;2022-09-09T09:01:50;21.50;99.90
69031;DHT22;56083;48.774;8.942;2022-09-09T09:07:56;20.80;99.90
69031;DHT22;56083;48.774;8.942;2022-09-09T09:10:39;22.40;99.90
69031;DHT22;56083;48.774;8.942;2022-09-09T09:13:14;23.90;99.90
69031;DHT22;56083;48.774;8.942;2022-09-09T09:15:42;25.10;99.90
69031;DHT22;56083;48.774;8.942;2022-09-09T09:18:12;24.80;99.90
69031;DHT22;56083;48.774;8.942;2022-09-09T09:20:56;24.60;99.90
69031;DHT22;56083;48.774;8.942;2022-09-09T09:23:26;24.60;99.90
69031;DHT22;56083;48.774;8.942;2022-09-09T09:25:58;24.90;99.90
69031;DHT22;56083;48.774;8.942;2022-09-09T09:28:27;25.40;99.90
69031;DHT22;56083;48.774;8.942;2022-09-09T09:30:58;25.30;99.90
69031;DHT22;56083;48.774;8.942;2022-09-09T09:36:11;25.30;99.90
69031;DHT22;56083;48.774;8.942;2022-09-09T09:39:00;25.50;99.90
69031;DHT22;56083;48.774;8.942;2022-09-09T09:41:41;25.40;99.90
69031;DHT22;56083;48.774;8.942;2022-09-09T09:44:31;25.80;99.90
69031;DHT22;56083;48.774;8.942;2022-09-09T09:47:20;26.00;99.90
69031;DHT22;56083;48.774;8.942;2022-09-09T09:52:22;26.90;99.90
69031;DHT22;56083;48.774;8.942;2022-09-09T09:54:49;26.50;99.90
69031;DHT22;56083;48.774;8.942;2022-09-09T09:57:16;26.40;99.90
69031;DHT22;56083;48.774;8.942;2022-09-09T09:59:43;26.70;99.90
69031;DHT22;56083;48.774;8.942;2022-09-09T10:02:23;25.80;99.90
69031;DHT22;56083;48.774;8.942;2022-09-09T10:05:16;25.70;99.90
69031;DHT22;56083;48.774;8.942;2022-09-09T10:07:44;26.00;99.90
69031;DHT22;56083;48.774;8.942;2022-09-09T10:10:15;26.50;99.90
69031;DHT22;56083;48.774;8.942;2022-09-09T10:15:31;26.00;99.90
69031;DHT22;56083;48.774;8.942;2022-09-09T10:18:58;25.50;99.90
69031;DHT22;56083;48.774;8.942;2022-09-09T10:26:54;23.70;99.90
69031;DHT22;56083;48.774;8.942;2022-09-09T10:35:01;23.80;99.90
69031;DHT22;56083;48.774;8.942;2022-09-09T10:54:16;17.90;99.90
69031;DHT22;56083;48.774;8.942;2022-09-09T10:56:54;17.20;99.90
69031;DHT22;56083;48.774;8.942;2022-09-09T10:59:26;16.10;99.90
69031;DHT22;56083;48.774;8.942;2022-09-09T11:04:34;15.50;99.90
69031;DHT22;56083;48.774;8.942;2022-09-09T11:07:06;15.40;99.90
69031;DHT22;56083;48.774;8.942;2022-09-09T11:09:38;15.40;99.90
69031;DHT22;56083;48.774;8.942;2022-09-09T11:12:05;15.30;99.90
69031;DHT22;56083;48.774;8.942;2022-09-09T11:14:47;15.40;99.90
69031;DHT22;56083;48.774;8.942;2022-09-09T11:17:18;15.50;99.90
69031;DHT22;56083;48.774;8.942;2022-09-09T11:19:45;15.30;99.90
69031;DHT22;56083;48.774;8.942;2022-09-09T11:22:34;15.10;99.90
69031;DHT22;56083;48.774;8.942;2022-09-09T11:39:02;15.00;99.90
69031;DHT22;56083;48.774;8.942;2022-09-09T11:41:36;15.00;99.90
69031;DHT22;56083;48.774;8.942;2022-09-09T11:44:10;15.20;99.90
69031;DHT22;56083;48.774;8.942;2022-09-09T11:46:38;15.40;99.90
69031;DHT22;56083;48.774;8.942;2022-09-09T11:49:06;15.70;99.90
69031;DHT22;56083;48.774;8.942;2022-09-09T11:51:33;16.10;99.90
69031;DHT22;56083;48.774;8.942;2022-09-09T11:54:32;16.70;99.90
69031;DHT22;56083;48.774;8.942;2022-09-09T11:57:02;17.60;99.90
69031;DHT22;56083;48.774;8.942;2022-09-09T11:59:31;18.30;99.90
69031;DHT22;56083;48.774;8.942;2022-09-09T12:07:05;19.40;99.90
69031;DHT22;56083;48.774;8.942;2022-09-09T12:09:52;21.50;99.90
69031;DHT22;56083;48.774;8.942;2022-09-09T12:12:24;22.30;99.90
69031;DHT22;56083;48.774;8.942;2022-09-09T12:17:30;23.30;99.90
69031;DHT22;56083;48.774;8.942;2022-09-09T12:20:11;23.60;99.90
69031;DHT22;56083;48.774;8.942;2022-09-09T12:28:35;22.90;99.90
69031;DHT22;56083;48.774;8.942;2022-09-09T12:31:12;24.00;99.90
69031;DHT22;56083;48.774;8.942;2022-09-09T12:33:44;25.10;99.90
69031;DHT22;56083;48.774;8.942;2022-09-09T12:36:19;25.50;99.90
69031;DHT22;56083;48.774;8.942;2022-09-09T12:38:46;25.40;99.90
69031;DHT22;56083;48.774;8.942;2022-09-09T12:41:26;25.50;99.90
69031;DHT22;56083;48.774;8.942;2022-09-09T12:44:08;26.20;99.90
69031;DHT22;56083;48.774;8.942;2022-09-09T12:46:53;26.70;99.90
69031;DHT22;56083;48.774;8.942;2022-09-09T12:49:37;27.10;99.90
69031;DHT22;56083;48.774;8.942;2022-09-09T12:52:07;26.60;99.90
69031;DHT22;56083;48.774;8.942;2022-09-09T12:54:36;26.00;99.90
69031;DHT22;56083;48.774;8.942;2022-09-09T12:57:02;24.90;99.90
69031;DHT22;56083;48.774;8.942;2022-09-09T12:59:37;24.80;99.90
69031;DHT22;56083;48.774;8.942;2022-09-09T13:02:16;25.60;99.90
69031;DHT22;56083;48.774;8.942;2022-09-09T13:04:43;26.50;99.90
69031;DHT22;56083;48.774;8.942;2022-09-09T13:07:13;27.00;99.90
69031;DHT22;56083;48.774;8.942;2022-09-09T13:09:39;26.70;99.90
69031;DHT22;56083;48.774;8.942;2022-09-09T13:12:11;26.90;99.80
69031;DHT22;56083;48.774;8.942;2022-09-09T13:14:38;26.80;98.60
69031;DHT22;56083;48.774;8.942;2022-09-09T13:17:06;26.90;99.50
69031;DHT22;56083;48.774;8.942;2022-09-09T13:19:37;27.50;96.00
69031;DHT22;56083;48.774;8.942;2022-09-09T13:22:19;26.40;96.50
69031;DHT22;56083;48.774;8.942;2022-09-09T13:24:45;25.50;97.80
69031;DHT22;56083;48.774;8.942;2022-09-09T13:27:31;26.20;98.50
69031;DHT22;56083;48.774;8.942;2022-09-09T13:29:57;26.90;96.50
69031;DHT22;56083;48.774;8.942;2022-09-09T13:32:24;27.40;94.50
69031;DHT22;56083;48.774;8.942;2022-09-09T13:34:57;27.60;92.20
69031;DHT22;56083;48.774;8.942;2022-09-09T13:37:33;27.80;91.30
69031;DHT22;56083;48.774;8.942;2022-09-09T13:40:00;27.40;91.00
69031;DHT22;56083;48.774;8.942;2022-09-09T13:42:28;27.10;90.70
69031;DHT22;56083;48.774;8.942;2022-09-09T13:44:56;27.10;91.60
69031;DHT22;56083;48.774;8.942;2022-09-09T13:47:34;27.90;91.00
69031;DHT22;56083;48.774;8.942;2022-09-09T13:50:26;28.20;88.50
69031;DHT22;56083;48.774;8.942;2022-09-09T13:52:57;27.70;85.70
69031;DHT22;56083;48.774;8.942;2022-09-09T13:55:36;27.20;89.00
69031;DHT22;56083;48.774;8.942;2022-09-09T13:58:03;27.80;87.10
69031;DHT22;56083;48.774;8.942;2022-09-09T14:00:32;28.30;85.80
69031;DHT22;56083;48.774;8.942;2022-09-09T14:02:59;28.70;84.20
69031;DHT22;56083;48.774;8.942;2022-09-09T14:05:29;28.50;81.20
69031;DHT22;56083;48.774;8.942;2022-09-09T14:07:55;28.30;80.80
69031;DHT22;56083;48.774;8.942;2022-09-09T14:10:21;28.10;79.90
69031;DHT22;56083;48.774;8.942;2022-09-09T14:12:47;28.10;81.70
69031;DHT22;56083;48.774;8.942;2022-09-09T14:15:13;28.40;80.20
69031;DHT22;56083;48.774;8.942;2022-09-09T14:17:39;28.30;79.50
69031;DHT22;56083;48.774;8.942;2022-09-09T14:20:06;27.90;81.60
69031;DHT22;56083;48.774;8.942;2022-09-09T14:22:37;27.60;80.60
69031;DHT22;56083;48.774;8.942;2022-09-09T14:25:04;27.40;81.50
69031;DHT22;56083;48.774;8.942;2022-09-09T14:27:31;27.40;79.40
69031;DHT22;56083;48.774;8.942;2022-09-09T14:29:58;27.50;79.80
69031;DHT22;56083;48.774;8.942;2022-09-09T14:32:25;27.70;80.50
69031;DHT22;56083;48.774;8.942;2022-09-09T14:34:51;28.00;80.30
69031;DHT22;56083;48.774;8.942;2022-09-09T14:37:17;28.50;78.50
69031;DHT22;56083;48.774;8.942;2022-09-09T14:39:43;28.90;75.70
69031;DHT22;56083;48.774;8.942;2022-09-09T14:42:10;28.90;76.10
69031;DHT22;56083;48.774;8.942;2022-09-09T14:44:37;27.80;74.60
69031;DHT22;56083;48.774;8.942;2022-09-09T14:47:04;26.00;81.40
69031;DHT22;56083;48.774;8.942;2022-09-09T14:49:30;25.00;83.90
69031;DHT22;56083;48.774;8.942;2022-09-09T14:51:56;25.00;84.30
69031;DHT22;56083;48.774;8.942;2022-09-09T14:54:22;24.70;85.20
69031;DHT22;56083;48.774;8.942;2022-09-09T14:56:48;24.50;86.00
69031;DHT22;56083;48.774;8.942;2022-09-09T14:59:14;24.10;85.70
69031;DHT22;56083;48.774;8.942;2022-09-09T15:01:40;23.60;88.20
69031;DHT22;56083;48.774;8.942;2022-09-09T15:04:06;23.20;90.40
69031;DHT22;56083;48.774;8.942;2022-09-09T15:06:34;23.00;91.40
69031;DHT22;56083;48.774;8.942;2022-09-09T15:09:02;22.40;91.90
69031;DHT22;56083;48.774;8.942;2022-09-09T15:11:30;21.90;92.60
69031;DHT22;56083;48.774;8.942;2022-09-09T15:13:56;21.90;93.70
69031;DHT22;56083;48.774;8.942;2022-09-09T15:16:23;22.50;92.60
69031;DHT22;56083;48.774;8.942;2022-09-09T15:18:55;23.90;91.10
69031;DHT22;56083;48.774;8.942;2022-09-09T15:21:23;25.30;88.30
69031;DHT22;56083;48.774;8.942;2022-09-09T15:23:49;25.50;85.80
69031;DHT22;56083;48.774;8.942;2022-09-09T15:26:16;25.40;86.60
69031;DHT22;56083;48.774;8.942;2022-09-09T15:28:44;25.00;87.50
69031;DHT22;56083;48.774;8.942;2022-09-09T15:31:13;24.10;90.00
69031;DHT22;56083;48.774;8.942;2022-09-09T15:33:55;23.30;91.30
69031;DHT22;56083;48.774;8.942;2022-09-09T15:36:32;22.50;92.30
69031;DHT22;56083;48.774;8.942;2022-09-09T15:38:59;21.70;93.80
69031;DHT22;56083;48.774;8.942;2022-09-09T15:41:26;21.20;94.80
69031;DHT22;56083;48.774;8.942;2022-09-09T15:43:53;20.80;95.60
69031;DHT22;56083;48.774;8.942;2022-09-09T15:51:29;20.50;97.20
69031;DHT22;56083;48.774;8.942;2022-09-09T15:53:57;20.40;97.00
69031;DHT22;56083;48.774;8.942;2022-09-09T15:56:24;20.30;97.60
69031;DHT22;56083;48.774;8.942;2022-09-09T15:58:50;20.10;98.10
69031;DHT22;56083;48.774;8.942;2022-09-09T16:01:16;20.10;98.30
69031;DHT22;56083;48.774;8.942;2022-09-09T16:03:45;19.90;98.60
69031;DHT22;56083;48.774;8.942;2022-09-09T16:06:21;19.90;98.90
69031;DHT22;56083;48.774;8.942;2022-09-09T16:08:49;19.80;99.40
69031;DHT22;56083;48.774;8.942;2022-09-09T16:11:24;19.70;99.90
69031;DHT22;56083;48.774;8.942;2022-09-09T16:13:52;19.70;99.90
69031;DHT22;56083;48.774;8.942;2022-09-09T16:16:20;19.50;99.90
69031;DHT22;56083;48.774;8.942;2022-09-09T16:18:49;19.20;99.90
69031;DHT22;56083;48.774;8.942;2022-09-09T16:21:28;18.80;99.90
69031;DHT22;56083;48.774;8.942;2022-09-09T16:23:59;18.60;99.90
69031;DHT22;56083;48.774;8.942;2022-09-09T16:26:25;18.40;99.90
69031;DHT22;56083;48.774;8.942;2022-09-09T16:28:51;18.20;99.90
69031;DHT22;56083;48.774;8.942;2022-09-09T16:31:21;18.20;99.90
69031;DHT22;56083;48.774;8.942;2022-09-09T16:33:48;18.10;99.90
69031;DHT22;56083;48.774;8.942;2022-09-09T16:36:17;17.90;99.90
69031;DHT22;56083;48.774;8.942;2022-09-09T16:38:43;17.80;99.90
69031;DHT22;56083;48.774;8.942;2022-09-09T16:41:10;17.60;99.90
69031;DHT22;56083;48.774;8.942;2022-09-09T16:43:36;17.20;99.90
69031;DHT22;56083;48.774;8.942;2022-09-09T16:46:09;16.90;99.90
69031;DHT22;56083;48.774;8.942;2022-09-09T16:48:36;16.60;99.90
69031;DHT22;56083;48.774;8.942;2022-09-09T16:51:23;16.20;99.90
69031;DHT22;56083;48.774;8.942;2022-09-09T16:53:49;16.10;99.90
69031;DHT22;56083;48.774;8.942;2022-09-09T16:56:17;16.00;99.90
69031;DHT22;56083;48.774;8.942;2022-09-09T16:58:49;15.80;99.90
69031;DHT22;56083;48.774;8.942;2022-09-09T17:01:15;15.70;99.90
69031;DHT22;56083;48.774;8.942;2022-09-09T17:03:41;15.60;99.90
69031;DHT22;56083;48.774;8.942;2022-09-09T17:06:11;15.60;99.90
69031;DHT22;56083;48.774;8.942;2022-09-09T17:08:41;15.60;99.90
69031;DHT22;56083;48.774;8.942;2022-09-09T17:11:17;15.60;99.90
69031;DHT22;56083;48.774;8.942;2022-09-09T17:13:45;15.60;99.90
69031;DHT22;56083;48.774;8.942;2022-09-09T17:16:12;15.60;99.90
69031;DHT22;56083;48.774;8.942;2022-09-09T17:18:39;15.60;99.90
69031;DHT22;56083;48.774;8.942;2022-09-09T17:21:07;15.60;99.90
69031;DHT22;56083;48.774;8.942;2022-09-09T17:23:35;15.60;99.90
69031;DHT22;56083;48.774;8.942;2022-09-09T17:26:04;15.70;99.90
69031;DHT22;56083;48.774;8.942;2022-09-09T17:28:31;15.70;99.90
69031;DHT22;56083;48.774;8.942;2022-09-09T17:31:00;15.60;99.90
69031;DHT22;56083;48.774;8.942;2022-09-09T17:33:28;15.60;99.90
69031;DHT22;56083;48.774;8.942;2022-09-09T17:35:58;15.60;99.90
69031;DHT22;56083;48.774;8.942;2022-09-09T17:38:25;15.60;99.90
69031;DHT22;56083;48.774;8.942;2022-09-09T17:41:07;15.60;99.90
69031;DHT22;56083;48.774;8.942;2022-09-09T17:43:34;15.60;99.90
69031;DHT22;56083;48.774;8.942;2022-09-09T17:48:36;15.50;99.90
69031;DHT22;56083;48.774;8.942;2022-09-09T17:51:07;15.50;99.90